Time;durP1;ratioP1;P1;durP2;ratioP2;P2;SDS_P1;SDS_P2;PMS_P1;PMS_P2;Temp;Humidity;BMP_temperature;BMP_pressure;BME280_temperature;BME280_humidity;BME280_pressure;Samples;Min_cycle;Max_cycle;Signal;HPM_P1;HPM_P2
2023/03/13 00:01:29;;;;;;;26.75;5.00;;;;;;;;;;4987529;28;93196;-71
2023/03/13 00:03:55;;;;;;;34.70;5.80;;;;;;;;;;4978491;28;93253;-70
2023/03/13 00:06:24;;;;;;;37.38;5.38;;;;;;;;;;4986012;28;92985;-70
2023/03/13 00:08:50;;;;;;;33.70;6.28;;;;;;;;;;4991483;28;93152;-70
2023/03/13 00:11:16;;;;;;;34.90;5.15;;;;;;;;;;4994242;28;94328;-70
2023/03/13 00:13:43;;;;;;;38.92;5.93;;;;;;;;;;4991265;28;93421;-73
2023/03/13 00:16:11;;;;;;;30.05;5.82;;;;;;;;;;4993864;28;95862;-75
2023/03/13 00:18:37;;;;;;;28.40;5.72;;;;;;;;;;4983808;28;92489;-73
2023/03/13 00:21:05;;;;;;;41.85;6.90;;;;;;;;;;4979889;28;93194;-74
2023/03/13 00:23:32;;;;;;;22.33;5.38;;;;;;;;;;4980861;28;93800;-74
2023/03/13 00:26:00;;;;;;;34.40;5.97;;;;;;;;;;4988520;28;92483;-74
2023/03/13 00:28:27;;;;;;;46.05;7.55;;;;;;;;;;4989126;28;93018;-74
2023/03/13 00:31:05;;;;;;;28.58;5.70;;;;;;;;;;4986972;28;93594;-74
2023/03/13 00:33:32;;;;;;;33.10;5.95;;;;;;;;;;4988099;28;91701;-74
2023/03/13 00:36:00;;;;;;;29.75;5.93;;;;;;;;;;4983451;28;93016;-74
2023/03/13 00:38:27;;;;;;;32.47;5.70;;;;;;;;;;4987715;28;93409;-73
2023/03/13 00:41:03;;;;;;;38.25;5.72;;;;;;;;;;4993150;28;95126;-74
2023/03/13 00:43:30;;;;;;;40.22;6.47;;;;;;;;;;4993905;28;93056;-74
2023/03/13 00:45:56;;;;;;;40.03;7.18;;;;;;;;;;4976002;28;92552;-74
2023/03/13 00:48:23;;;;;;;41.45;6.78;;;;;;;;;;4974667;28;93223;-74
2023/03/13 00:50:50;;;;;;;34.05;6.60;;;;;;;;;;4992709;28;93649;-74
2023/03/13 00:53:16;;;;;;;30.42;5.80;;;;;;;;;;4992807;28;92491;-74
2023/03/13 00:55:56;;;;;;;37.45;7.03;;;;;;;;;;4979881;28;93512;-74
2023/03/13 00:58:23;;;;;;;35.43;5.83;;;;;;;;;;4989909;28;91689;-74
2023/03/13 01:00:50;;;;;;;42.92;6.70;;;;;;;;;;4986615;28;93848;-75
2023/03/13 01:03:16;;;;;;;43.10;6.55;;;;;;;;;;4987050;28;93402;-74
2023/03/13 01:05:43;;;;;;;36.67;7.15;;;;;;;;;;4973469;28;94844;-74
2023/03/13 01:08:09;;;;;;;29.17;5.57;;;;;;;;;;4987114;28;95606;-75
2023/03/13 01:10:36;;;;;;;35.25;5.95;;;;;;;;;;4987109;28;93684;-75
2023/03/13 01:13:03;;;;;;;30.55;5.38;;;;;;;;;;4974928;28;92530;-75
2023/03/13 01:15:32;;;;;;;33.67;6.10;;;;;;;;;;4984852;28;93398;-74
2023/03/13 01:17:59;;;;;;;34.97;5.80;;;;;;;;;;4990849;28;93256;-74
2023/03/13 01:20:25;;;;;;;28.85;4.97;;;;;;;;;;4992118;28;92443;-75
2023/03/13 01:22:51;;;;;;;33.50;5.80;;;;;;;;;;4985385;28;92699;-73
2023/03/13 01:25:18;;;;;;;30.13;5.47;;;;;;;;;;4992671;28;92429;-73
2023/03/13 01:27:44;;;;;;;36.08;6.53;;;;;;;;;;4992417;28;93264;-73
2023/03/13 01:30:10;;;;;;;26.38;5.53;;;;;;;;;;4977427;28;97211;-73
2023/03/13 01:32:37;;;;;;;29.48;5.40;;;;;;;;;;4985683;28;92779;-74
2023/03/13 01:35:03;;;;;;;21.63;5.88;;;;;;;;;;4978646;28;92491;-74
2023/03/13 01:37:29;;;;;;;25.73;4.90;;;;;;;;;;4985154;28;93482;-74
2023/03/13 01:39:56;;;;;;;25.52;4.85;;;;;;;;;;4979914;28;92503;-74
2023/03/13 01:42:22;;;;;;;25.00;5.43;;;;;;;;;;4993009;28;96089;-73
2023/03/13 01:44:50;;;;;;;20.88;5.18;;;;;;;;;;4984186;28;93174;-73
2023/03/13 01:47:16;;;;;;;17.33;4.45;;;;;;;;;;4992965;28;93381;-73
2023/03/13 01:49:43;;;;;;;16.45;4.88;;;;;;;;;;4987657;28;94074;-73
2023/03/13 01:52:13;;;;;;;25.02;4.63;;;;;;;;;;4986477;28;92529;-73
2023/03/13 01:54:42;;;;;;;15.82;4.32;;;;;;;;;;4986337;28;94974;-75
2023/03/13 01:57:11;;;;;;;20.25;4.97;;;;;;;;;;4982029;28;93566;-75
2023/03/13 01:59:43;;;;;;;15.85;4.60;;;;;;;;;;4992868;28;93047;-75
2023/03/13 02:02:09;;;;;;;17.52;4.60;;;;;;;;;;4988444;28;94219;-74
2023/03/13 02:04:40;;;;;;;14.05;4.47;;;;;;;;;;4996167;28;95795;-74
2023/03/13 02:07:06;;;;;;;;;;;;;;;;;;4996077;28;93177;-75
2023/03/13 02:09:33;;;;;;;21.17;5.00;;;;;;;;;;4991568;28;123135;-75
2023/03/13 02:12:06;;;;;;;21.95;5.53;;;;;;;;;;4987656;28;91759;-74
2023/03/13 02:14:33;;;;;;;20.88;5.05;;;;;;;;;;4994354;28;93445;-75
2023/03/13 02:17:00;;;;;;;12.60;5.05;;;;;;;;;;4993197;28;93561;-73
2023/03/13 02:19:30;;;;;;;21.63;5.53;;;;;;;;;;4995172;28;95439;-74
2023/03/13 02:22:16;;;;;;;19.57;5.73;;;;;;;;;;4990607;28;95578;-74
2023/03/13 02:25:15;;;;;;;20.60;5.75;;;;;;;;;;4993592;28;92462;-74
2023/03/13 02:27:42;;;;;;;14.85;5.57;;;;;;;;;;4992101;28;92540;-74
2023/03/13 02:30:09;;;;;;;15.25;6.10;;;;;;;;;;4981767;28;93492;-74
2023/03/13 02:32:35;;;;;;;22.52;7.10;;;;;;;;;;4992023;28;93717;-75
2023/03/13 02:35:05;;;;;;;18.00;6.90;;;;;;;;;;4976710;28;93433;-74
2023/03/13 02:37:31;;;;;;;18.98;7.88;;;;;;;;;;4982275;28;92743;-75
2023/03/13 02:40:01;;;;;;;21.90;6.93;;;;;;;;;;4974151;28;92461;-74
2023/03/13 02:42:28;;;;;;;17.52;6.68;;;;;;;;;;4977085;28;93562;-74
2023/03/13 02:44:54;;;;;;;17.48;7.00;;;;;;;;;;4968869;28;95865;-74
2023/03/13 02:47:21;;;;;;;15.40;8.13;;;;;;;;;;4991247;28;92523;-74
2023/03/13 02:49:49;;;;;;;15.25;7.72;;;;;;;;;;4992362;28;94197;-74
2023/03/13 02:52:19;;;;;;;23.17;8.55;;;;;;;;;;4980938;28;92553;-74
2023/03/13 02:54:48;;;;;;;19.83;8.25;;;;;;;;;;4992033;28;94247;-74
2023/03/13 02:57:14;;;;;;;23.23;9.85;;;;;;;;;;4974130;28;94007;-74
2023/03/13 02:59:41;;;;;;;20.45;9.82;;;;;;;;;;4974326;28;92550;-74
2023/03/13 03:02:07;;;;;;;22.15;9.60;;;;;;;;;;4986101;28;93201;-75
2023/03/13 03:04:34;;;;;;;21.73;9.98;;;;;;;;;;4956874;28;93970;-74
2023/03/13 03:07:00;;;;;;;23.92;10.20;;;;;;;;;;4972635;28;93997;-75
2023/03/13 03:09:26;;;;;;;28.17;9.77;;;;;;;;;;4964210;28;97190;-74
2023/03/13 03:11:53;;;;;;;22.63;10.43;;;;;;;;;;4972847;28;93794;-75
2023/03/13 03:14:19;;;;;;;23.73;9.65;;;;;;;;;;4967341;28;93871;-75
2023/03/13 03:16:45;;;;;;;27.05;11.43;;;;;;;;;;4972947;28;93401;-75
2023/03/13 03:19:12;;;;;;;24.10;10.02;;;;;;;;;;4965586;28;92723;-74
2023/03/13 03:21:38;;;;;;;22.90;10.48;;;;;;;;;;4974971;28;94253;-74
2023/03/13 03:24:05;;;;;;;18.60;11.02;;;;;;;;;;4974228;28;93433;-74
2023/03/13 03:26:31;;;;;;;29.20;12.23;;;;;;;;;;4976044;28;91811;-75
2023/03/13 03:28:57;;;;;;;22.58;11.35;;;;;;;;;;4972676;28;95739;-76
2023/03/13 03:31:24;;;;;;;19.23;9.85;;;;;;;;;;4977553;28;93290;-75
2023/03/13 03:33:50;;;;;;;23.95;10.88;;;;;;;;;;4972032;28;95130;-74
2023/03/13 03:36:18;;;;;;;22.63;11.48;;;;;;;;;;4973000;28;95590;-74
2023/03/13 03:38:45;;;;;;;18.67;10.88;;;;;;;;;;4964181;28;92517;-74
2023/03/13 03:41:13;;;;;;;21.83;10.80;;;;;;;;;;4972135;28;93602;-74
2023/03/13 03:43:39;;;;;;;23.38;11.65;;;;;;;;;;4958568;28;93992;-73
2023/03/13 03:46:05;;;;;;;18.42;10.68;;;;;;;;;;4970354;28;92562;-74
2023/03/13 03:48:32;;;;;;;29.35;10.90;;;;;;;;;;4973133;28;93240;-74
2023/03/13 03:50:58;;;;;;;20.08;10.60;;;;;;;;;;4968658;28;93102;-74
2023/03/13 03:53:24;;;;;;;20.75;11.25;;;;;;;;;;4977423;28;92544;-74
2023/03/13 03:55:51;;;;;;;19.60;10.60;;;;;;;;;;4984932;28;93769;-74
2023/03/13 03:58:17;;;;;;;20.70;10.20;;;;;;;;;;4992305;28;94949;-74
2023/03/13 04:00:44;;;;;;;16.15;9.73;;;;;;;;;;4989153;28;95812;-74
2023/03/13 04:03:11;;;;;;;20.40;9.43;;;;;;;;;;4984168;28;93404;-74
2023/03/13 04:05:37;;;;;;;18.23;9.40;;;;;;;;;;4993516;28;92899;-74
2023/03/13 04:08:04;;;;;;;20.83;9.07;;;;;;;;;;4995194;28;93195;-74
2023/03/13 04:10:30;;;;;;;22.30;8.48;;;;;;;;;;4994159;28;95128;-74
2023/03/13 04:12:56;;;;;;;16.33;8.32;;;;;;;;;;4994763;28;92500;-73
2023/03/13 04:15:23;;;;;;;15.85;8.70;;;;;;;;;;4993183;28;93135;-73
2023/03/13 04:17:49;;;;;;;15.40;7.43;;;;;;;;;;4989648;28;92455;-74
2023/03/13 04:20:16;;;;;;;21.23;7.75;;;;;;;;;;4992756;28;93544;-73
2023/03/13 04:22:43;;;;;;;15.38;7.43;;;;;;;;;;4988315;28;95802;-74
2023/03/13 04:25:09;;;;;;;20.80;7.78;;;;;;;;;;4987289;28;92527;-74
2023/03/13 04:27:36;;;;;;;18.38;7.80;;;;;;;;;;4978516;28;94327;-74
2023/03/13 04:30:03;;;;;;;14.88;6.72;;;;;;;;;;4983556;28;95336;-74
2023/03/13 04:32:29;;;;;;;14.98;7.07;;;;;;;;;;4990926;28;94369;-74
2023/03/13 04:34:55;;;;;;;17.52;7.00;;;;;;;;;;4989235;28;93159;-74
2023/03/13 04:37:22;;;;;;;13.13;7.15;;;;;;;;;;4995919;28;93525;-74
2023/03/13 04:39:48;;;;;;;13.52;7.47;;;;;;;;;;4992986;28;93158;-73
2023/03/13 04:42:15;;;;;;;10.10;6.05;;;;;;;;;;4993284;28;94470;-73
2023/03/13 04:44:41;;;;;;;16.77;6.90;;;;;;;;;;4982903;28;92599;-75
2023/03/13 04:47:09;;;;;;;14.80;6.30;;;;;;;;;;5001336;28;95009;-74
2023/03/13 04:49:35;;;;;;;11.48;6.13;;;;;;;;;;4994438;28;94351;-76
2023/03/13 04:52:02;;;;;;;13.23;5.45;;;;;;;;;;4992062;28;92477;-75
2023/03/13 04:54:28;;;;;;;16.88;5.68;;;;;;;;;;4990008;28;94121;-74
2023/03/13 04:56:54;;;;;;;16.80;5.95;;;;;;;;;;4998483;28;95746;-76
2023/03/13 04:59:21;;;;;;;12.38;5.85;;;;;;;;;;5007393;28;92473;-76
2023/03/13 05:01:47;;;;;;;11.50;4.90;;;;;;;;;;4993588;28;93452;-77
2023/03/13 05:04:13;;;;;;;8.38;4.63;;;;;;;;;;4993815;28;92109;-75
2023/03/13 05:06:40;;;;;;;12.50;4.82;;;;;;;;;;4994158;28;93608;-76
2023/03/13 05:09:06;;;;;;;18.75;4.55;;;;;;;;;;4991812;28;93769;-75
2023/03/13 05:11:32;;;;;;;9.07;4.40;;;;;;;;;;4983146;28;95433;-75
2023/03/13 05:13:59;;;;;;;13.00;4.55;;;;;;;;;;4993895;28;95671;-75
2023/03/13 05:16:25;;;;;;;12.55;4.47;;;;;;;;;;4991902;28;93435;-75
2023/03/13 05:18:52;;;;;;;22.05;5.18;;;;;;;;;;4989496;28;92451;-75
2023/03/13 05:21:18;;;;;;;9.95;3.80;;;;;;;;;;4990358;28;93250;-75
2023/03/13 05:23:44;;;;;;;11.18;3.85;;;;;;;;;;4994294;28;92830;-74
2023/03/13 05:26:10;;;;;;;11.25;3.58;;;;;;;;;;4977811;28;93131;-75
2023/03/13 05:28:37;;;;;;;8.45;3.65;;;;;;;;;;4984952;28;92130;-75
2023/03/13 05:31:03;;;;;;;9.30;3.45;;;;;;;;;;4989386;28;92448;-75
2023/03/13 05:33:30;;;;;;;5.03;3.20;;;;;;;;;;4995190;28;92999;-76
2023/03/13 05:35:56;;;;;;;11.77;4.07;;;;;;;;;;4990637;28;95827;-75
2023/03/13 05:38:22;;;;;;;12.95;3.55;;;;;;;;;;4996303;28;92504;-76
2023/03/13 05:40:49;;;;;;;5.70;3.13;;;;;;;;;;4993772;28;94303;-75
2023/03/13 05:43:15;;;;;;;10.30;3.60;;;;;;;;;;4999741;28;92827;-75
2023/03/13 05:45:42;;;;;;;12.52;3.45;;;;;;;;;;5006207;28;93359;-75
2023/03/13 05:48:08;;;;;;;12.57;3.97;;;;;;;;;;5017629;28;93486;-74
2023/03/13 05:50:34;;;;;;;12.98;3.10;;;;;;;;;;5017573;28;92372;-74
2023/03/13 05:53:01;;;;;;;9.13;3.00;;;;;;;;;;5018895;28;91860;-74
2023/03/13 05:55:27;;;;;;;13.98;2.88;;;;;;;;;;5010442;28;93789;-73
2023/03/13 05:57:53;;;;;;;6.60;3.10;;;;;;;;;;5011029;28;93577;-74
2023/03/13 06:00:20;;;;;;;17.70;3.00;;;;;;;;;;5020712;28;94557;-74
2023/03/13 06:02:46;;;;;;;8.25;3.10;;;;;;;;;;5011515;28;95313;-73
2023/03/13 06:05:12;;;;;;;16.25;3.53;;;;;;;;;;5021624;28;93429;-73
2023/03/13 06:07:39;;;;;;;12.40;3.67;;;;;;;;;;5020486;28;95094;-75
2023/03/13 06:10:05;;;;;;;9.70;3.33;;;;;;;;;;5019012;28;92760;-75
2023/03/13 06:12:32;;;;;;;8.65;3.03;;;;;;;;;;5022720;28;92126;-74
2023/03/13 06:14:58;;;;;;;13.63;3.00;;;;;;;;;;5017197;28;93323;-74
2023/03/13 06:17:24;;;;;;;10.85;3.00;;;;;;;;;;5001983;28;92420;-75
2023/03/13 06:19:50;;;;;;;11.52;3.20;;;;;;;;;;4999340;28;92706;-75
2023/03/13 06:22:17;;;;;;;13.02;3.42;;;;;;;;;;4991150;28;95840;-75
2023/03/13 06:24:44;;;;;;;10.55;3.33;;;;;;;;;;4992763;28;95846;-74
2023/03/13 06:27:10;;;;;;;9.40;3.22;;;;;;;;;;4996217;28;94539;-76
2023/03/13 06:29:36;;;;;;;12.05;2.95;;;;;;;;;;4988143;28;92853;-75
2023/03/13 06:32:03;;;;;;;13.18;3.63;;;;;;;;;;4996061;28;93358;-75
2023/03/13 06:34:29;;;;;;;4.45;2.85;;;;;;;;;;4997702;28;93488;-75
2023/03/13 06:36:57;;;;;;;10.57;4.05;;;;;;;;;;4996494;28;93893;-75
2023/03/13 06:39:23;;;;;;;9.82;3.33;;;;;;;;;;4992222;28;93107;-75
2023/03/13 06:41:50;;;;;;;13.00;3.55;;;;;;;;;;4999785;28;91689;-75
2023/03/13 06:44:16;;;;;;;9.35;3.72;;;;;;;;;;4991575;28;92814;-76
2023/03/13 06:46:42;;;;;;;9.00;3.50;;;;;;;;;;5005206;28;93236;-76
2023/03/13 06:49:09;;;;;;;12.07;3.00;;;;;;;;;;5011454;28;94857;-75
2023/03/13 06:51:35;;;;;;;12.25;3.13;;;;;;;;;;4995467;28;98443;-75
2023/03/13 06:54:02;;;;;;;14.55;3.83;;;;;;;;;;4995596;28;93336;-76
2023/03/13 06:56:28;;;;;;;11.15;3.53;;;;;;;;;;4976920;28;92404;-76
2023/03/13 06:58:54;;;;;;;10.98;2.92;;;;;;;;;;4982622;28;93236;-75
2023/03/13 07:01:24;;;;;;;7.83;3.13;;;;;;;;;;4990298;28;93979;-75
2023/03/13 07:03:51;;;;;;;7.45;2.60;;;;;;;;;;4979739;28;93901;-76
2023/03/13 07:06:17;;;;;;;14.93;3.47;;;;;;;;;;4991885;28;93469;-75
2023/03/13 07:08:44;;;;;;;9.93;3.00;;;;;;;;;;4988304;28;93888;-75
2023/03/13 07:11:11;;;;;;;15.55;3.67;;;;;;;;;;4994791;28;94631;-77
2023/03/13 07:13:38;;;;;;;14.48;3.65;;;;;;;;;;4985613;28;96689;-77
2023/03/13 07:16:06;;;;;;;11.27;2.90;;;;;;;;;;4989153;28;92459;-77
2023/03/13 07:18:33;;;;;;;10.57;3.10;;;;;;;;;;4995736;28;95009;-77
2023/03/13 07:21:03;;;;;;;8.68;3.35;;;;;;;;;;4992860;28;94134;-77
2023/03/13 07:23:30;;;;;;;8.23;3.17;;;;;;;;;;4995017;28;92829;-76
2023/03/13 07:26:01;;;;;;;8.55;2.90;;;;;;;;;;4994420;28;93149;-77
2023/03/13 07:28:29;;;;;;;13.90;3.38;;;;;;;;;;4994208;28;94026;-76
2023/03/13 07:31:03;;;;;;;11.02;2.90;;;;;;;;;;4998482;28;91805;-76
2023/03/13 07:33:29;;;;;;;11.02;3.03;;;;;;;;;;4988180;28;92787;-75
2023/03/13 07:35:55;;;;;;;13.93;2.88;;;;;;;;;;4995760;28;92448;-76
2023/03/13 07:38:21;;;;;;;14.93;3.40;;;;;;;;;;4991293;28;94803;-77
2023/03/13 07:40:52;;;;;;;10.25;3.10;;;;;;;;;;4991566;28;93405;-77
2023/03/13 07:43:19;;;;;;;10.93;3.22;;;;;;;;;;4990383;28;92527;-76
2023/03/13 07:45:53;;;;;;;8.90;3.28;;;;;;;;;;4991777;28;92816;-76
2023/03/13 07:48:20;;;;;;;13.32;3.63;;;;;;;;;;4992915;28;94050;-77
2023/03/13 07:50:46;;;;;;;11.75;3.40;;;;;;;;;;4998150;28;92462;-75
2023/03/13 07:53:19;;;;;;;24.58;4.38;;;;;;;;;;4993197;28;92465;-75
2023/03/13 07:55:52;;;;;;;7.25;2.70;;;;;;;;;;4983596;28;91659;-76
2023/03/13 07:58:19;;;;;;;10.90;3.05;;;;;;;;;;4988476;28;93315;-76
2023/03/13 08:00:45;;;;;;;10.85;3.10;;;;;;;;;;4994899;28;92349;-75
2023/03/13 08:03:11;;;;;;;8.73;3.25;;;;;;;;;;4991841;28;95425;-75
2023/03/13 08:05:38;;;;;;;11.93;2.90;;;;;;;;;;4995803;28;97577;-75
2023/03/13 08:08:04;;;;;;;12.45;2.80;;;;;;;;;;4993466;28;94471;-75
2023/03/13 08:10:30;;;;;;;8.18;2.92;;;;;;;;;;4992324;28;92484;-75
2023/03/13 08:12:57;;;;;;;14.98;3.72;;;;;;;;;;4989874;28;93449;-75
2023/03/13 08:15:25;;;;;;;8.40;2.78;;;;;;;;;;4994956;28;92385;-76
2023/03/13 08:17:51;;;;;;;9.80;3.25;;;;;;;;;;4994798;28;93182;-76
2023/03/13 08:20:18;;;;;;;12.13;3.55;;;;;;;;;;4979672;28;92686;-75
2023/03/13 08:22:45;;;;;;;13.20;3.83;;;;;;;;;;4990216;28;92574;-75
2023/03/13 08:25:14;;;;;;;12.40;3.42;;;;;;;;;;4995383;28;94472;-75
2023/03/13 08:27:40;;;;;;;11.32;3.00;;;;;;;;;;4988789;28;96073;-76
2023/03/13 08:30:07;;;;;;;7.88;2.90;;;;;;;;;;4994486;28;92910;-76
2023/03/13 08:32:34;;;;;;;7.55;2.75;;;;;;;;;;4995508;28;93318;-76
2023/03/13 08:35:01;;;;;;;12.63;3.50;;;;;;;;;;4998001;28;92568;-76
2023/03/13 08:37:27;;;;;;;16.55;2.97;;;;;;;;;;4989558;28;94076;-75
2023/03/13 08:39:55;;;;;;;10.80;3.10;;;;;;;;;;4985177;28;92877;-75
2023/03/13 08:42:22;;;;;;;11.00;3.10;;;;;;;;;;4987082;28;94001;-75
2023/03/13 08:44:48;;;;;;;10.63;3.10;;;;;;;;;;4975407;28;93284;-76
2023/03/13 08:47:16;;;;;;;11.27;3.10;;;;;;;;;;4988377;28;92439;-76
2023/03/13 08:49:43;;;;;;;12.82;2.55;;;;;;;;;;4994062;28;92481;-76
2023/03/13 08:52:09;;;;;;;9.07;2.28;;;;;;;;;;4991772;28;94967;-75
2023/03/13 08:54:36;;;;;;;9.90;2.28;;;;;;;;;;4993825;28;94454;-76
2023/03/13 08:57:02;;;;;;;11.05;2.53;;;;;;;;;;4988109;28;92462;-76
2023/03/13 08:59:28;;;;;;;7.22;2.50;;;;;;;;;;4974701;28;93482;-76
2023/03/13 09:01:55;;;;;;;10.32;2.20;;;;;;;;;;4992744;28;92509;-76
2023/03/13 09:04:21;;;;;;;8.10;2.42;;;;;;;;;;4990999;28;93224;-76
2023/03/13 09:06:47;;;;;;;11.27;2.75;;;;;;;;;;4987271;28;93789;-76
2023/03/13 09:09:14;;;;;;;10.05;2.53;;;;;;;;;;4989745;28;91791;-76
2023/03/13 09:11:40;;;;;;;11.93;2.40;;;;;;;;;;4983395;28;92624;-76
2023/03/13 09:14:07;;;;;;;6.97;2.35;;;;;;;;;;4989791;28;94292;-76
2023/03/13 09:16:34;;;;;;;6.45;2.45;;;;;;;;;;4993073;28;94865;-76
2023/03/13 09:19:01;;;;;;;9.05;1.75;;;;;;;;;;4996416;28;95579;-75
2023/03/13 09:21:28;;;;;;;6.85;1.83;;;;;;;;;;4988143;28;92919;-75
2023/03/13 09:23:55;;;;;;;8.77;2.25;;;;;;;;;;4997130;28;93203;-75
2023/03/13 09:26:23;;;;;;;8.27;2.47;;;;;;;;;;4993952;28;94593;-74
2023/03/13 09:28:50;;;;;;;5.60;2.15;;;;;;;;;;4994714;28;92435;-75
2023/03/13 09:31:18;;;;;;;9.65;2.08;;;;;;;;;;4992913;28;93133;-74
2023/03/13 09:33:45;;;;;;;6.13;2.08;;;;;;;;;;4987334;28;92880;-74
2023/03/13 09:36:12;;;;;;;6.57;1.38;;;;;;;;;;4988379;28;92539;-75
2023/03/13 09:38:38;;;;;;;15.65;2.15;;;;;;;;;;4984647;28;93626;-75
2023/03/13 09:41:25;;;;;;;7.68;1.85;;;;;;;;;;4978745;28;95070;-75
2023/03/13 09:43:51;;;;;;;12.48;2.03;;;;;;;;;;4975765;28;96692;-75
2023/03/13 09:46:25;;;;;;;6.05;1.77;;;;;;;;;;4978664;28;93482;-74
2023/03/13 09:48:54;;;;;;;8.70;1.85;;;;;;;;;;4981966;28;94297;-74
2023/03/13 09:51:30;;;;;;;6.65;1.48;;;;;;;;;;4981893;28;93303;-74
2023/03/13 09:54:00;;;;;;;5.63;1.38;;;;;;;;;;4983517;28;93738;-74
2023/03/13 09:56:30;;;;;;;11.35;2.50;;;;;;;;;;4982121;28;93153;-74
2023/03/13 09:59:05;;;;;;;6.10;1.70;;;;;;;;;;4993059;28;94304;-74
2023/03/13 10:01:34;;;;;;;3.83;1.40;;;;;;;;;;4995619;28;93469;-75
2023/03/13 10:04:03;;;;;;;6.25;1.88;;;;;;;;;;4977852;28;93588;-73
2023/03/13 10:06:33;;;;;;;59.58;6.78;;;;;;;;;;4987917;28;96069;-74
2023/03/13 10:09:00;;;;;;;55.78;5.85;;;;;;;;;;4984298;28;92541;-75
2023/03/13 10:11:28;;;;;;;14.32;2.85;;;;;;;;;;4973721;28;93162;-74
2023/03/13 10:14:13;;;;;;;14.93;1.52;;;;;;;;;;4975463;28;93468;-75
2023/03/13 10:16:55;;;;;;;4.60;1.25;;;;;;;;;;4992702;28;92435;-74
2023/03/13 10:19:25;;;;;;;3.22;1.15;;;;;;;;;;4993651;28;92365;-74
2023/03/13 10:21:51;;;;;;;;;;;;;;;;;;4992318;28;93411;-72
2023/03/13 10:24:25;;;;;;;22.10;2.92;;;;;;;;;;4997184;28;117008;-74
2023/03/13 10:26:51;;;;;;;13.68;2.35;;;;;;;;;;4994495;28;93525;-75
2023/03/13 10:29:27;;;;;;;4.90;1.15;;;;;;;;;;4996666;28;92420;-74
2023/03/13 10:31:58;;;;;;;3.90;1.27;;;;;;;;;;4993671;28;94888;-74
2023/03/13 10:34:24;;;;;;;;;;;;;;;;;;4995756;28;93364;-72
2023/03/13 10:36:54;;;;;;;11.50;1.70;;;;;;;;;;4995270;28;118743;-75
2023/03/13 10:39:21;;;;;;;5.57;1.25;;;;;;;;;;4997123;28;96291;-74
2023/03/13 10:41:48;;;;;;;3.25;1.42;;;;;;;;;;4996663;28;94298;-74
2023/03/13 10:44:19;;;;;;;5.45;1.52;;;;;;;;;;4984876;28;93200;-74
2023/03/13 10:46:47;;;;;;;4.63;1.65;;;;;;;;;;4999149;28;93123;-74
2023/03/13 10:49:22;;;;;;;4.72;1.80;;;;;;;;;;4995038;28;91823;-74
2023/03/13 10:51:49;;;;;;;7.15;1.60;;;;;;;;;;4984859;28;95490;-74
2023/03/13 10:54:29;;;;;;;5.70;1.67;;;;;;;;;;4995186;28;93546;-74
2023/03/13 10:57:08;;;;;;;9.82;1.55;;;;;;;;;;4994520;28;95145;-74
2023/03/13 10:59:38;;;;;;;8.05;2.17;;;;;;;;;;4995089;28;95976;-75
2023/03/13 11:02:19;;;;;;;7.30;1.73;;;;;;;;;;4996216;28;92373;-75
2023/03/13 11:04:48;;;;;;;5.20;1.45;;;;;;;;;;4980852;28;92567;-75
2023/03/13 11:07:18;;;;;;;4.07;1.35;;;;;;;;;;4994626;28;92466;-75
2023/03/13 11:09:56;;;;;;;8.43;1.50;;;;;;;;;;4996597;28;93257;-75
2023/03/13 11:12:22;;;;;;;6.63;1.80;;;;;;;;;;4996181;28;93440;-75
2023/03/13 11:14:55;;;;;;;4.95;1.70;;;;;;;;;;4980694;28;93236;-74
2023/03/13 11:17:31;;;;;;;3.63;1.35;;;;;;;;;;4987866;28;92507;-74
2023/03/13 11:20:09;;;;;;;7.65;1.52;;;;;;;;;;4992387;28;93385;-74
2023/03/13 11:22:36;;;;;;;5.15;1.88;;;;;;;;;;4975300;28;95440;-74
2023/03/13 11:25:11;;;;;;;2.75;1.10;;;;;;;;;;4975651;28;92392;-73
2023/03/13 11:27:43;;;;;;;4.45;1.35;;;;;;;;;;4976051;28;93321;-73
2023/03/13 11:30:12;;;;;;;8.25;1.63;;;;;;;;;;4974401;28;92477;-72
2023/03/13 11:32:43;;;;;;;2.95;1.27;;;;;;;;;;4989031;28;92670;-73
2023/03/13 11:35:33;;;;;;;5.53;1.23;;;;;;;;;;4994344;28;93948;-73
2023/03/13 11:38:01;;;;;;;2.47;1.17;;;;;;;;;;4995788;28;92411;-73
2023/03/13 11:40:35;;;;;;;3.85;1.45;;;;;;;;;;4991165;28;94114;-73
2023/03/13 11:43:08;;;;;;;3.60;1.27;;;;;;;;;;4990930;28;93440;-73
2023/03/13 11:46:02;;;;;;;2.90;1.17;;;;;;;;;;4983696;28;92499;-73
2023/03/13 11:48:47;;;;;;;5.32;1.40;;;;;;;;;;4988839;28;94813;-73
2023/03/13 11:51:16;;;;;;;6.45;1.75;;;;;;;;;;4981607;28;92685;-73
2023/03/13 11:54:04;;;;;;;3.83;1.45;;;;;;;;;;4978724;28;92549;-74
2023/03/13 11:56:37;;;;;;;3.20;1.10;;;;;;;;;;4985635;28;94624;-74
2023/03/13 11:59:06;;;;;;;2.55;1.23;;;;;;;;;;4981338;28;93714;-74
2023/03/13 12:01:35;;;;;;;2.63;0.90;;;;;;;;;;4990783;28;93059;-75
2023/03/13 12:04:04;;;;;;;5.88;1.50;;;;;;;;;;4994864;28;96082;-74
2023/03/13 12:06:32;;;;;;;5.30;1.15;;;;;;;;;;4996079;28;91669;-75
2023/03/13 12:09:03;;;;;;;6.15;1.67;;;;;;;;;;4994873;28;94680;-75
2023/03/13 12:11:29;;;;;;;;;;;;;;;;;;4994249;28;93917;-72
2023/03/13 12:13:55;;;;;;;7.93;1.55;;;;;;;;;;4993682;28;116984;-73
2023/03/13 12:16:30;;;;;;;6.95;1.60;;;;;;;;;;5001530;28;97019;-74
2023/03/13 12:18:56;;;;;;;6.18;1.02;;;;;;;;;;4990277;28;92837;-76
2023/03/13 12:21:37;;;;;;;5.82;1.77;;;;;;;;;;4975047;28;92873;-75
2023/03/13 12:24:21;;;;;;;9.32;1.58;;;;;;;;;;4975249;28;93339;-75
2023/03/13 12:27:17;;;;;;;11.23;2.30;;;;;;;;;;4977272;28;92991;-75
2023/03/13 12:29:58;;;;;;;9.48;2.22;;;;;;;;;;4984109;28;94488;-75
2023/03/13 12:32:36;;;;;;;4.22;1.48;;;;;;;;;;4995816;28;95096;-75
2023/03/13 12:35:41;;;;;;;8.40;2.33;;;;;;;;;;4994876;28;92429;-75
2023/03/13 12:38:22;;;;;;;9.82;2.28;;;;;;;;;;4933060;28;93282;-76
2023/03/13 12:40:51;;;;;;;6.22;1.85;;;;;;;;;;4927373;28;97007;-75
2023/03/13 12:43:18;;;;;;;8.73;2.00;;;;;;;;;;4949859;28;95977;-74
2023/03/13 12:46:00;;;;;;;5.43;1.90;;;;;;;;;;4952103;28;93337;-75
2023/03/13 12:48:45;;;;;;;8.95;2.35;;;;;;;;;;4953037;28;92822;-75
2023/03/13 12:51:20;;;;;;;5.55;2.15;;;;;;;;;;4951538;28;93119;-75
2023/03/13 12:54:05;;;;;;;5.53;2.17;;;;;;;;;;4950802;28;93618;-74
2023/03/13 12:56:40;;;;;;;8.13;2.15;;;;;;;;;;4952336;28;92819;-74
2023/03/13 12:59:24;;;;;;;10.65;2.40;;;;;;;;;;4953743;28;94606;-75
2023/03/13 13:01:52;;;;;;;8.60;2.10;;;;;;;;;;4949914;28;93663;-74
2023/03/13 13:04:23;;;;;;;9.73;1.90;;;;;;;;;;4945251;28;93562;-74
2023/03/13 13:07:04;;;;;;;7.85;2.33;;;;;;;;;;4958189;28;95606;-74
2023/03/13 13:09:35;;;;;;;6.55;2.17;;;;;;;;;;4962617;28;92520;-74
2023/03/13 13:12:21;;;;;;;7.90;2.45;;;;;;;;;;4994963;28;92844;-74
2023/03/13 13:14:48;;;;;;;11.07;2.50;;;;;;;;;;4989917;28;93706;-74
2023/03/13 13:17:32;;;;;;;11.45;2.17;;;;;;;;;;4984466;28;92456;-75
2023/03/13 13:20:18;;;;;;;10.75;2.40;;;;;;;;;;4989157;28;93395;-74
2023/03/13 13:22:46;;;;;;;8.73;2.15;;;;;;;;;;4994039;28;95190;-74
2023/03/13 13:25:12;;;;;;;10.68;2.38;;;;;;;;;;4994116;28;91745;-75
2023/03/13 13:27:38;;;;;;;10.70;2.70;;;;;;;;;;4996358;28;92764;-74
2023/03/13 13:30:16;;;;;;;13.73;2.35;;;;;;;;;;4993712;28;92445;-75
2023/03/13 13:32:44;;;;;;;8.40;2.17;;;;;;;;;;4989279;28;94829;-75
2023/03/13 13:35:10;;;;;;;10.75;2.17;;;;;;;;;;4992358;28;94779;-74
2023/03/13 13:37:37;;;;;;;10.15;2.53;;;;;;;;;;4992850;28;94372;-74
2023/03/13 13:40:19;;;;;;;11.18;2.63;;;;;;;;;;4994258;28;93381;-74
2023/03/13 13:42:45;;;;;;;12.65;3.08;;;;;;;;;;4994311;28;94472;-74
2023/03/13 13:45:14;;;;;;;17.42;3.13;;;;;;;;;;4992349;28;92551;-74
2023/03/13 13:47:45;;;;;;;14.05;3.33;;;;;;;;;;4993841;28;93563;-74
2023/03/13 13:50:21;;;;;;;11.25;3.05;;;;;;;;;;4995644;28;92573;-74
2023/03/13 13:52:48;;;;;;;11.68;2.75;;;;;;;;;;4987680;28;94431;-74
2023/03/13 13:55:21;;;;;;;12.05;3.13;;;;;;;;;;4992648;28;93458;-73
2023/03/13 13:57:48;;;;;;;16.55;3.53;;;;;;;;;;4991424;28;94887;-74
2023/03/13 14:00:20;;;;;;;12.32;2.85;;;;;;;;;;4996910;28;95662;-74
2023/03/13 14:02:56;;;;;;;17.83;3.08;;;;;;;;;;4997481;28;92480;-73
2023/03/13 14:05:25;;;;;;;16.45;3.60;;;;;;;;;;4991994;28;92434;-74
2023/03/13 14:08:02;;;;;;;24.15;4.03;;;;;;;;;;4996858;28;92747;-73
2023/03/13 14:10:30;;;;;;;15.70;3.83;;;;;;;;;;5000163;28;92865;-74
2023/03/13 14:12:58;;;;;;;20.77;3.55;;;;;;;;;;4997123;28;93183;-74
2023/03/13 14:15:25;;;;;;;17.83;3.60;;;;;;;;;;4996451;28;92752;-73
2023/03/13 14:17:53;;;;;;;23.67;4.00;;;;;;;;;;4997103;28;92432;-73
2023/03/13 14:20:28;;;;;;;17.95;3.55;;;;;;;;;;4991844;28;93364;-74
2023/03/13 14:22:55;;;;;;;18.45;4.22;;;;;;;;;;4990111;28;95836;-73
2023/03/13 14:25:25;;;;;;;19.13;3.40;;;;;;;;;;4992703;28;92503;-73
2023/03/13 14:27:53;;;;;;;16.08;3.58;;;;;;;;;;4995211;28;94312;-74
2023/03/13 14:30:20;;;;;;;19.25;4.22;;;;;;;;;;4993486;28;93587;-73
2023/03/13 14:32:47;;;;;;;14.57;3.92;;;;;;;;;;4998779;28;92616;-73
2023/03/13 14:35:15;;;;;;;14.98;3.60;;;;;;;;;;4994202;28;94222;-73
2023/03/13 14:37:43;;;;;;;13.30;3.67;;;;;;;;;;4995571;28;92526;-73
2023/03/13 14:40:20;;;;;;;12.30;3.55;;;;;;;;;;4996015;28;92769;-76
2023/03/13 14:42:54;;;;;;;17.02;3.60;;;;;;;;;;4996789;28;92481;-74
2023/03/13 14:45:22;;;;;;;22.35;4.00;;;;;;;;;;4994198;28;92489;-75
2023/03/13 14:47:49;;;;;;;13.57;3.78;;;;;;;;;;4993015;28;94765;-73